Time;durP1;ratioP1;P1;durP2;ratioP2;P2;SDS_P1;SDS_P2;PMS_P1;PMS_P2;Temp;Humidity;BMP_temperature;BMP_pressure;BME280_temperature;BME280_humidity;BME280_pressure;Samples;Min_cycle;Max_cycle;Signal;HPM_P1;HPM_P2
2023/02/14 00:00:53;;;;;;;13.75;7.43;;;;;;;;;;5084083;28;20070;-52
2023/02/14 00:03:20;;;;;;;12.60;7.28;;;;;;;;;;5083577;28;20028;-51
2023/02/14 00:05:46;;;;;;;14.95;7.35;;;;;;;;;;5073018;28;20035;-52
2023/02/14 00:08:12;;;;;;;14.65;7.72;;;;;;;;;;5084247;28;20028;-49
2023/02/14 00:10:38;;;;;;;11.75;7.18;;;;;;;;;;5064461;28;20559;-49
2023/02/14 00:13:04;;;;;;;13.27;7.20;;;;;;;;;;5083281;28;20095;-52
2023/02/14 00:15:30;;;;;;;14.65;7.28;;;;;;;;;;5083629;28;20042;-52
2023/02/14 00:17:58;;;;;;;13.50;6.70;;;;;;;;;;5084221;28;20035;-53
2023/02/14 00:20:25;;;;;;;11.57;6.10;;;;;;;;;;5066322;28;20119;-51
2023/02/14 00:22:52;;;;;;;9.43;5.10;;;;;;;;;;5083712;28;20024;-53
2023/02/14 00:25:18;;;;;;;10.55;5.65;;;;;;;;;;5083040;28;20597;-49
2023/02/14 00:27:44;;;;;;;9.13;5.47;;;;;;;;;;5083266;28;20028;-53
2023/02/14 00:30:11;;;;;;;11.63;5.97;;;;;;;;;;5079484;28;20111;-50
2023/02/14 00:32:39;;;;;;;11.85;5.90;;;;;;;;;;5084023;28;20028;-49
2023/02/14 00:35:06;;;;;;;11.18;6.10;;;;;;;;;;5084970;28;20058;-49
2023/02/14 00:37:33;;;;;;;10.68;6.05;;;;;;;;;;5084692;28;20043;-49
2023/02/14 00:39:59;;;;;;;11.95;6.78;;;;;;;;;;5084816;28;20039;-49
2023/02/14 00:42:25;;;;;;;10.63;5.82;;;;;;;;;;5087021;28;20475;-50
2023/02/14 00:44:51;;;;;;;12.85;6.80;;;;;;;;;;5088534;28;20039;-51
2023/02/14 00:47:18;;;;;;;11.80;6.65;;;;;;;;;;5088158;28;20032;-51
2023/02/14 00:49:44;;;;;;;11.48;6.18;;;;;;;;;;5088493;28;20474;-52
2023/02/14 00:52:10;;;;;;;11.90;6.32;;;;;;;;;;5087946;28;20116;-50
2023/02/14 00:54:37;;;;;;;11.93;6.45;;;;;;;;;;5088389;28;20024;-50
2023/02/14 00:57:03;;;;;;;13.13;7.35;;;;;;;;;;5088253;28;20435;-48
2023/02/14 00:59:29;;;;;;;13.20;7.22;;;;;;;;;;5087920;28;20056;-50
2023/02/14 01:01:55;;;;;;;13.27;7.18;;;;;;;;;;5088384;28;20059;-52
2023/02/14 01:04:22;;;;;;;13.95;7.38;;;;;;;;;;5087628;28;20059;-48
2023/02/14 06:13:07;;;;;;;14.35;8.15;;;;;;;;;;5082729;28;20043;-48
2023/02/14 06:15:36;;;;;;;15.52;8.27;;;;;;;;;;5074242;28;20124;-52
2023/02/14 06:18:03;;;;;;;15.35;9.05;;;;;;;;;;5069910;28;20030;-50
2023/02/14 06:20:29;;;;;;;16.13;9.20;;;;;;;;;;5069942;28;20041;-50
2023/02/14 06:22:56;;;;;;;16.73;9.13;;;;;;;;;;5068833;28;20032;-50
2023/02/14 06:25:23;;;;;;;16.88;8.73;;;;;;;;;;5069786;28;20111;-48
2023/02/14 06:27:49;;;;;;;14.70;8.27;;;;;;;;;;5069370;28;20032;-48
2023/02/14 06:30:15;;;;;;;16.27;8.48;;;;;;;;;;5069324;28;20097;-50
2023/02/14 06:32:42;;;;;;;13.80;7.70;;;;;;;;;;5069530;28;20017;-49
2023/02/14 06:35:08;;;;;;;13.48;7.70;;;;;;;;;;5069500;28;20531;-50
2023/02/14 06:37:34;;;;;;;13.60;7.30;;;;;;;;;;5067997;28;20028;-49
2023/02/14 06:40:00;;;;;;;13.38;7.38;;;;;;;;;;5069016;28;20043;-48
2023/02/14 06:42:27;;;;;;;12.18;6.63;;;;;;;;;;5069556;28;20025;-51
2023/02/14 06:44:53;;;;;;;13.70;7.28;;;;;;;;;;5069156;28;20094;-49
2023/02/14 06:47:19;;;;;;;12.15;7.18;;;;;;;;;;5069359;28;20035;-51
2023/02/14 06:49:45;;;;;;;12.45;6.75;;;;;;;;;;5069241;28;20522;-48
2023/02/14 06:52:11;;;;;;;14.68;6.97;;;;;;;;;;5068887;28;20020;-49
2023/02/14 06:54:37;;;;;;;12.68;6.90;;;;;;;;;;5064901;28;20494;-51
2023/02/14 06:57:03;;;;;;;11.20;6.78;;;;;;;;;;5068873;28;20028;-49
2023/02/14 06:59:29;;;;;;;13.38;7.53;;;;;;;;;;5068711;28;20258;-50
2023/02/14 07:01:55;;;;;;;13.95;7.32;;;;;;;;;;5069150;28;20039;-49
2023/02/14 07:04:21;;;;;;;17.38;8.85;;;;;;;;;;5068687;28;20107;-50
2023/02/14 07:06:47;;;;;;;21.20;11.02;;;;;;;;;;5068743;28;20047;-51
2023/02/14 07:09:16;;;;;;;20.10;11.68;;;;;;;;;;5064227;28;20384;-50
2023/02/14 07:11:42;;;;;;;19.60;10.73;;;;;;;;;;5049666;28;20120;-48
2023/02/14 07:14:08;;;;;;;20.77;10.80;;;;;;;;;;5071423;28;20562;-50
2023/02/14 07:16:34;;;;;;;19.30;10.15;;;;;;;;;;5089036;28;20579;-51
2023/02/14 07:19:00;;;;;;;18.48;9.20;;;;;;;;;;5088753;28;20471;-51
2023/02/14 07:21:26;;;;;;;16.58;9.30;;;;;;;;;;5089275;28;20048;-50
2023/02/14 07:23:52;;;;;;;16.50;8.90;;;;;;;;;;5088852;28;20060;-48
2023/02/14 07:26:18;;;;;;;19.13;9.93;;;;;;;;;;5088638;28;20032;-50
2023/02/14 07:28:47;;;;;;;18.90;10.07;;;;;;;;;;5088689;28;20056;-49
2023/02/14 07:31:13;;;;;;;19.85;10.32;;;;;;;;;;5088013;28;20059;-51
2023/02/14 07:33:41;;;;;;;20.50;10.98;;;;;;;;;;5088379;28;20040;-52
2023/02/14 07:36:08;;;;;;;19.95;11.00;;;;;;;;;;5087313;28;20031;-48
2023/02/14 07:38:34;;;;;;;18.95;9.93;;;;;;;;;;5088130;28;20024;-51
2023/02/14 07:41:00;;;;;;;18.45;9.82;;;;;;;;;;5087529;28;20017;-51
2023/02/14 07:43:27;;;;;;;15.50;8.77;;;;;;;;;;5088072;28;20031;-48
2023/02/14 07:45:54;;;;;;;16.52;8.93;;;;;;;;;;5087274;28;20059;-48
2023/02/14 07:48:20;;;;;;;15.30;8.43;;;;;;;;;;5069560;28;20059;-47
2023/02/14 07:50:46;;;;;;;19.42;10.10;;;;;;;;;;5088285;28;20032;-51
2023/02/14 07:53:12;;;;;;;13.32;7.40;;;;;;;;;;5087348;28;20107;-49
2023/02/14 07:55:39;;;;;;;15.70;8.52;;;;;;;;;;5087103;28;20074;-52
2023/02/14 07:58:05;;;;;;;17.63;9.23;;;;;;;;;;5087600;28;20415;-51
2023/02/14 08:00:31;;;;;;;14.52;8.00;;;;;;;;;;5087902;28;20051;-48
2023/02/14 08:02:57;;;;;;;14.32;7.80;;;;;;;;;;5088023;28;20416;-48
2023/02/14 08:05:23;;;;;;;13.52;7.30;;;;;;;;;;5087982;28;20472;-50
2023/02/14 08:07:49;;;;;;;12.13;6.78;;;;;;;;;;5087823;28;20105;-52
2023/02/14 08:10:16;;;;;;;12.55;7.07;;;;;;;;;;5088359;28;20081;-52
2023/02/14 08:13:00;;;;;;;12.68;6.45;;;;;;;;;;5090176;28;20039;-53
2023/02/14 08:18:17;;;;;;;12.02;6.30;;;;;;;;;;5085710;28;20047;-51
2023/02/14 08:20:43;;;;;;;10.20;6.07;;;;;;;;;;5071677;28;20024;-51
2023/02/14 08:23:09;;;;;;;9.48;5.85;;;;;;;;;;5086173;28;20028;-52
2023/02/14 08:25:35;;;;;;;9.23;5.45;;;;;;;;;;5087407;28;20028;-49
2023/02/14 08:28:02;;;;;;;9.35;5.25;;;;;;;;;;5086274;28;20050;-49
2023/02/14 08:30:28;;;;;;;11.95;5.43;;;;;;;;;;5086204;28;20110;-50
2023/02/14 08:32:54;;;;;;;10.00;5.43;;;;;;;;;;5086339;28;20058;-50
2023/02/14 08:35:20;;;;;;;8.25;4.70;;;;;;;;;;5082780;28;20039;-50
2023/02/14 08:37:46;;;;;;;7.45;4.60;;;;;;;;;;5085589;28;20020;-48
2023/02/14 08:40:12;;;;;;;8.52;4.68;;;;;;;;;;5085389;28;20479;-51
2023/02/14 08:42:39;;;;;;;8.15;4.60;;;;;;;;;;5085910;28;20117;-50
2023/02/14 08:45:05;;;;;;;8.23;4.88;;;;;;;;;;5084976;28;20693;-50
2023/02/14 08:47:34;;;;;;;7.40;4.45;;;;;;;;;;5079696;28;20515;-49
2023/02/14 08:50:02;;;;;;;7.07;4.40;;;;;;;;;;5085836;28;20499;-51
2023/02/14 08:52:28;;;;;;;7.70;4.88;;;;;;;;;;5085184;28;20020;-50
2023/02/14 08:54:55;;;;;;;7.80;4.72;;;;;;;;;;5085700;28;20137;-52
2023/02/14 08:57:21;;;;;;;8.23;4.75;;;;;;;;;;5085429;28;20121;-53
2023/02/14 08:59:48;;;;;;;7.85;4.75;;;;;;;;;;5085822;28;20066;-48
2023/02/14 09:02:15;;;;;;;8.27;4.53;;;;;;;;;;5085734;28;20035;-51
2023/02/14 09:04:41;;;;;;;6.97;4.57;;;;;;;;;;5089452;28;20035;-51
2023/02/14 09:07:07;;;;;;;7.38;4.05;;;;;;;;;;5089511;28;20031;-53
2023/02/14 09:09:33;;;;;;;8.45;4.38;;;;;;;;;;5089745;28;20028;-50
2023/02/14 09:12:03;;;;;;;6.90;3.95;;;;;;;;;;5089119;28;20109;-52
2023/02/14 09:14:29;;;;;;;7.07;4.32;;;;;;;;;;5088629;28;20479;-52
2023/02/14 09:16:55;;;;;;;8.02;4.50;;;;;;;;;;5088803;28;20035;-49
2023/02/14 09:19:22;;;;;;;6.43;3.85;;;;;;;;;;5088425;28;20090;-48
2023/02/14 09:21:48;;;;;;;5.68;3.75;;;;;;;;;;5088804;28;20127;-51
2023/02/14 09:24:14;;;;;;;6.85;4.00;;;;;;;;;;5088763;28;20120;-48
2023/02/14 09:26:41;;;;;;;5.57;3.38;;;;;;;;;;5088322;28;20032;-49
2023/02/14 09:29:07;;;;;;;5.20;3.28;;;;;;;;;;5088712;28;20110;-48
2023/02/14 09:31:33;;;;;;;6.70;4.10;;;;;;;;;;5088935;28;20490;-52
2023/02/14 09:36:45;;;;;;;6.75;3.40;;;;;;;;;;5089013;28;20540;-52
2023/02/14 09:39:11;;;;;;;6.25;3.85;;;;;;;;;;5088569;28;20036;-52
2023/02/14 09:41:55;;;;;;;5.60;3.60;;;;;;;;;;5089303;28;20508;-53
2023/02/14 09:44:30;;;;;;;5.53;3.80;;;;;;;;;;5088551;28;20541;-48
2023/02/14 09:47:01;;;;;;;5.43;3.15;;;;;;;;;;5087058;28;20028;-51
2023/02/14 09:49:34;;;;;;;6.65;3.38;;;;;;;;;;5088595;28;20032;-51
2023/02/14 09:52:02;;;;;;;4.90;3.45;;;;;;;;;;5087278;28;20028;-50
2023/02/14 09:54:29;;;;;;;5.82;3.40;;;;;;;;;;5088508;28;20035;-52
2023/02/14 09:57:01;;;;;;;7.63;3.95;;;;;;;;;;5088335;28;20441;-50
2023/02/14 09:59:40;;;;;;;6.60;3.95;;;;;;;;;;5087467;28;20447;-52
2023/02/14 10:02:06;;;;;;;7.07;4.13;;;;;;;;;;5088929;28;20031;-52
2023/02/14 10:04:35;;;;;;;8.32;4.28;;;;;;;;;;5088078;28;20035;-50
2023/02/14 10:07:17;;;;;;;6.03;3.38;;;;;;;;;;5086328;28;20028;-49
2023/02/14 10:09:49;;;;;;;6.63;3.90;;;;;;;;;;5085762;28;20554;-49
2023/02/14 10:12:26;;;;;;;5.15;3.30;;;;;;;;;;5081327;28;20062;-51
2023/02/14 10:14:53;;;;;;;5.18;3.00;;;;;;;;;;5086441;28;20036;-52
2023/02/14 10:17:24;;;;;;;7.50;3.50;;;;;;;;;;5083171;28;20036;-53
2023/02/14 10:19:57;;;;;;;4.88;3.10;;;;;;;;;;5067642;28;20175;-53
2023/02/14 10:22:26;;;;;;;5.45;3.25;;;;;;;;;;5066922;28;20024;-51
2023/02/14 10:25:00;;;;;;;4.45;3.08;;;;;;;;;;5067770;28;20434;-49
2023/02/14 10:27:34;;;;;;;5.77;3.77;;;;;;;;;;5077966;28;20051;-48
2023/02/14 10:30:01;;;;;;;;;;;;;;;;;;5088055;28;20254;-52
2023/02/14 10:32:41;;;;;;;4.82;2.75;;;;;;;;;;5087703;28;19927;-50
2023/02/14 10:35:15;;;;;;;5.60;3.17;;;;;;;;;;5086476;28;20027;-50
2023/02/14 10:37:50;;;;;;;3.83;2.47;;;;;;;;;;5087472;28;20392;-52
2023/02/14 10:40:28;;;;;;;4.93;2.97;;;;;;;;;;5087390;28;20110;-48
2023/02/14 10:43:06;;;;;;;4.95;3.28;;;;;;;;;;5086140;28;20027;-49
2023/02/14 10:45:32;;;;;;;4.10;2.65;;;;;;;;;;5087352;28;20056;-49
2023/02/14 10:48:12;;;;;;;5.25;3.05;;;;;;;;;;5080088;28;20112;-50
2023/02/14 10:51:00;;;;;;;4.63;2.85;;;;;;;;;;5087359;28;20035;-51
2023/02/14 10:53:26;;;;;;;4.70;3.15;;;;;;;;;;5086068;28;20118;-52
2023/02/14 10:55:55;;;;;;;4.40;3.00;;;;;;;;;;5087541;28;20115;-50
2023/02/14 10:58:22;;;;;;;5.70;3.25;;;;;;;;;;5088078;28;20035;-52
2023/02/14 11:00:54;;;;;;;5.18;3.00;;;;;;;;;;5087933;28;20095;-50
2023/02/14 11:03:21;;;;;;;6.38;3.50;;;;;;;;;;5087398;28;20035;-52
2023/02/14 11:05:47;;;;;;;6.97;3.42;;;;;;;;;;5086264;28;20039;-51
2023/02/14 11:08:14;;;;;;;8.30;5.07;;;;;;;;;;5085109;28;20028;-49
2023/02/14 11:10:40;;;;;;;9.27;5.13;;;;;;;;;;5086893;28;20020;-52
2023/02/14 11:13:25;;;;;;;8.82;5.03;;;;;;;;;;5087262;28;20035;-50
2023/02/14 11:15:52;;;;;;;;;;;;;;;;;;5079064;28;20024;-50
2023/02/14 11:18:23;;;;;;;9.82;5.63;;;;;;;;;;5087437;28;20258;-49
2023/02/14 11:20:59;;;;;;;10.25;5.68;;;;;;;;;;5088711;28;20086;-49
2023/02/14 11:23:25;;;;;;;9.45;4.95;;;;;;;;;;5087486;28;20020;-52
2023/02/14 11:25:54;;;;;;;8.95;5.13;;;;;;;;;;5087732;28;20036;-52
2023/02/14 11:28:21;;;;;;;7.30;4.45;;;;;;;;;;5088360;28;20028;-53
2023/02/14 11:30:49;;;;;;;7.70;4.70;;;;;;;;;;5087210;28;20059;-52
2023/02/14 11:33:28;;;;;;;6.57;3.78;;;;;;;;;;5087688;28;20024;-49
2023/02/14 11:35:54;;;;;;;7.28;4.65;;;;;;;;;;5087819;28;20020;-49
2023/02/14 11:38:35;;;;;;;8.68;4.65;;;;;;;;;;5088317;28;20077;-51
2023/02/14 11:41:02;;;;;;;8.02;4.20;;;;;;;;;;5086931;28;20039;-52
2023/02/14 11:43:31;;;;;;;7.30;4.18;;;;;;;;;;5087861;28;20048;-53
2023/02/14 11:46:21;;;;;;;9.45;4.72;;;;;;;;;;5087389;28;20422;-49
2023/02/14 11:48:58;;;;;;;7.90;4.55;;;;;;;;;;5070220;28;20388;-48
2023/02/14 11:51:44;;;;;;;7.22;4.60;;;;;;;;;;5067210;28;20025;-49
2023/02/14 11:54:26;;;;;;;7.78;4.32;;;;;;;;;;5067034;28;20037;-49
2023/02/14 11:56:53;;;;;;;6.47;3.92;;;;;;;;;;5082389;28;20056;-53
2023/02/14 11:59:25;;;;;;;7.50;4.13;;;;;;;;;;5086329;28;20032;-50
2023/02/14 12:01:53;;;;;;;7.80;4.65;;;;;;;;;;5086321;28;20110;-51
2023/02/14 12:04:21;;;;;;;9.20;5.30;;;;;;;;;;5086256;28;20035;-50
2023/02/14 12:06:47;;;;;;;9.70;5.30;;;;;;;;;;5086878;28;20024;-53
2023/02/14 12:09:22;;;;;;;8.88;5.30;;;;;;;;;;5084404;28;20085;-51
2023/02/14 12:11:57;;;;;;;10.52;6.07;;;;;;;;;;5083182;28;20473;-50
2023/02/14 12:14:24;;;;;;;9.10;5.63;;;;;;;;;;5076153;28;20028;-53
2023/02/14 12:17:00;;;;;;;9.98;5.22;;;;;;;;;;5084977;28;20106;-52
2023/02/14 12:19:34;;;;;;;10.43;6.18;;;;;;;;;;5085015;28;20031;-53
2023/02/14 12:22:02;;;;;;;9.23;5.00;;;;;;;;;;5091084;28;20403;-51
2023/02/14 12:24:53;;;;;;;10.70;5.68;;;;;;;;;;5085518;28;20077;-49
2023/02/14 12:27:22;;;;;;;7.28;4.45;;;;;;;;;;5086099;28;20032;-52
2023/02/14 12:29:48;;;;;;;8.55;4.78;;;;;;;;;;5086193;28;20028;-51
2023/02/14 12:32:22;;;;;;;8.82;5.10;;;;;;;;;;5085906;28;20544;-50
2023/02/14 12:34:49;;;;;;;10.82;5.32;;;;;;;;;;5086577;28;20100;-49
2023/02/14 12:37:15;;;;;;;6.90;3.85;;;;;;;;;;5086278;28;20039;-50
2023/02/14 12:39:48;;;;;;;6.90;4.20;;;;;;;;;;5089654;28;20487;-50
2023/02/14 12:42:26;;;;;;;9.27;5.57;;;;;;;;;;5089644;28;20020;-53
2023/02/14 12:45:04;;;;;;;7.18;4.13;;;;;;;;;;5089546;28;20403;-52
2023/02/14 12:47:40;;;;;;;5.93;3.97;;;;;;;;;;5089906;28;20097;-49
2023/02/14 12:50:06;;;;;;;9.45;5.40;;;;;;;;;;5085943;28;20016;-53
2023/02/14 12:53:01;;;;;;;10.63;6.43;;;;;;;;;;5090336;28;20459;-51
2023/02/14 12:55:36;;;;;;;8.55;5.38;;;;;;;;;;5016811;28;20100;-52
2023/02/14 12:58:03;;;;;;;9.10;5.03;;;;;;;;;;5089648;28;20035;-52
2023/02/14 13:00:44;;;;;;;6.75;3.95;;;;;;;;;;5089585;28;20132;-53
2023/02/14 13:03:10;;;;;;;6.38;4.00;;;;;;;;;;5089073;28;20035;-52
2023/02/14 13:05:43;;;;;;;7.50;4.85;;;;;;;;;;5089512;28;20036;-51
2023/02/14 13:08:12;;;;;;;7.57;4.20;;;;;;;;;;5088166;28;20099;-51
2023/02/14 13:10:41;;;;;;;7.30;4.20;;;;;;;;;;5088281;28;20065;-53
2023/02/14 13:13:15;;;;;;;7.38;4.53;;;;;;;;;;5088995;28;20024;-52
2023/02/14 13:15:49;;;;;;;5.88;3.80;;;;;;;;;;5088831;28;20256;-52
2023/02/14 13:18:21;;;;;;;6.68;4.00;;;;;;;;;;5089367;28;20024;-53
2023/02/14 13:20:55;;;;;;;5.55;3.65;;;;;;;;;;5089109;28;20403;-53
2023/02/14 13:23:24;;;;;;;5.15;3.40;;;;;;;;;;5086562;28;20024;-51
2023/02/14 13:25:54;;;;;;;5.82;4.10;;;;;;;;;;5088796;28;20035;-51
2023/02/14 13:28:20;;;;;;;6.32;4.30;;;;;;;;;;5088861;28;20166;-52
2023/02/14 13:30:46;;;;;;;6.55;3.80;;;;;;;;;;5088516;28;20487;-53
2023/02/14 13:33:21;;;;;;;5.57;3.75;;;;;;;;;;5087534;28;20694;-52
2023/02/14 13:35:47;;;;;;;5.07;3.30;;;;;;;;;;5087092;28;20201;-53
2023/02/14 13:38:15;;;;;;;3.83;2.80;;;;;;;;;;5087624;28;20031;-51
2023/02/14 13:40:41;;;;;;;5.28;3.47;;;;;;;;;;5086771;28;20118;-50
2023/02/14 13:43:07;;;;;;;5.82;3.90;;;;;;;;;;5087193;28;20035;-53
2023/02/14 13:45:36;;;;;;;6.55;3.88;;;;;;;;;;5088075;28;20024;-51
2023/02/14 13:48:11;;;;;;;5.63;3.50;;;;;;;;;;5088266;28;20024;-51
2023/02/14 13:50:48;;;;;;;5.70;3.33;;;;;;;;;;5085986;28;20028;-51
2023/02/14 13:53:28;;;;;;;4.38;3.10;;;;;;;;;;5088511;28;20024;-53
2023/02/14 13:55:55;;;;;;;6.10;3.33;;;;;;;;;;5088359;28;20028;-52
2023/02/14 13:58:23;;;;;;;4.57;3.08;;;;;;;;;;5088635;28;20023;-51
2023/02/14 14:00:49;;;;;;;4.53;3.03;;;;;;;;;;5088862;28;20499;-52
2023/02/14 14:03:28;;;;;;;4.55;2.85;;;;;;;;;;5088673;28;20605;-53
2023/02/14 14:06:00;;;;;;;5.32;3.58;;;;;;;;;;5087227;28;20024;-50
2023/02/14 14:08:26;;;;;;;5.43;3.63;;;;;;;;;;5086019;28;20485;-54
2023/02/14 14:10:58;;;;;;;6.53;3.67;;;;;;;;;;5086642;28;20065;-50
2023/02/14 14:13:40;;;;;;;8.02;4.40;;;;;;;;;;5086572;28;20016;-52
2023/02/14 14:16:18;;;;;;;8.18;4.35;;;;;;;;;;5086963;28;20035;-49
2023/02/14 14:18:44;;;;;;;5.78;3.85;;;;;;;;;;5086359;28;20438;-50
2023/02/14 14:21:29;;;;;;;6.60;3.97;;;;;;;;;;5086575;28;20034;-50
2023/02/14 14:24:14;;;;;;;5.32;3.50;;;;;;;;;;5086291;28;20034;-50
2023/02/14 14:26:42;;;;;;;5.13;3.22;;;;;;;;;;5086667;28;20036;-50
2023/02/14 14:29:30;;;;;;;5.35;3.28;;;;;;;;;;5086617;28;20031;-50
2023/02/14 14:31:56;;;;;;;4.28;2.70;;;;;;;;;;5086675;28;20097;-50
2023/02/14 14:34:26;;;;;;;6.03;3.88;;;;;;;;;;5086291;28;20422;-52
2023/02/14 14:37:03;;;;;;;4.85;3.00;;;;;;;;;;5066355;28;20139;-52
2023/02/14 14:39:31;;;;;;;5.90;3.30;;;;;;;;;;5072715;28;20055;-51
2023/02/14 14:42:04;;;;;;;5.03;3.30;;;;;;;;;;5086799;28;20024;-49
2023/02/14 14:44:32;;;;;;;4.82;3.28;;;;;;;;;;5086871;28;20123;-49
2023/02/14 14:46:58;;;;;;;6.03;3.47;;;;;;;;;;5086167;28;20461;-51
2023/02/14 14:49:25;;;;;;;5.00;3.22;;;;;;;;;;5086258;28;20499;-50
2023/02/14 14:51:51;;;;;;;6.10;3.78;;;;;;;;;;5086224;28;20024;-51
2023/02/14 14:54:23;;;;;;;5.18;3.22;;;;;;;;;;5085697;28;20031;-49
2023/02/14 14:56:51;;;;;;;5.55;3.13;;;;;;;;;;5086234;28;20541;-50
2023/02/14 14:59:19;;;;;;;5.15;3.30;;;;;;;;;;5086072;28;20028;-52
2023/02/14 15:01:45;;;;;;;5.35;3.38;;;;;;;;;;5085963;28;20081;-53
2023/02/14 15:04:14;;;;;;;5.55;3.55;;;;;;;;;;5085775;28;20035;-51
2023/02/14 15:06:41;;;;;;;5.47;3.30;;;;;;;;;;5085904;28;20032;-52
2023/02/14 15:09:12;;;;;;;5.57;3.50;;;;;;;;;;5085400;28;20024;-51
2023/02/14 15:14:24;;;;;;;4.40;3.03;;;;;;;;;;5085994;28;20051;-50
2023/02/14 15:16:51;;;;;;;4.10;2.97;;;;;;;;;;5085807;28;20104;-51
2023/02/14 15:19:17;;;;;;;5.57;3.45;;;;;;;;;;5085708;28;20028;-48
2023/02/14 15:21:43;;;;;;;5.63;3.40;;;;;;;;;;5085686;28;20027;-49
2023/02/14 15:24:12;;;;;;;4.78;3.35;;;;;;;;;;5085061;28;20032;-51
2023/02/14 15:26:38;;;;;;;4.65;2.78;;;;;;;;;;5085799;28;20506;-53
2023/02/14 15:29:06;;;;;;;4.10;2.88;;;;;;;;;;5086041;28;20024;-51
2023/02/14 15:31:39;;;;;;;5.75;3.25;;;;;;;;;;5086077;28;20023;-50
2023/02/14 15:34:05;;;;;;;4.23;2.63;;;;;;;;;;5086046;28;20024;-50
2023/02/14 15:36:33;;;;;;;4.13;2.88;;;;;;;;;;5086205;28;20043;-49
2023/02/14 15:39:00;;;;;;;5.72;3.60;;;;;;;;;;5084988;28;20031;-52
2023/02/14 15:41:26;;;;;;;4.90;3.05;;;;;;;;;;5085681;28;20028;-53
2023/02/14 15:43:54;;;;;;;6.32;3.83;;;;;;;;;;5085777;28;20497;-53
2023/02/14 15:46:26;;;;;;;5.70;3.88;;;;;;;;;;5086024;28;20079;-53
2023/02/14 15:48:52;;;;;;;6.43;4.10;;;;;;;;;;5085470;28;20030;-53
2023/02/14 15:51:23;;;;;;;6.07;3.58;;;;;;;;;;5085690;28;20025;-50
2023/02/14 15:53:52;;;;;;;6.13;4.32;;;;;;;;;;5085077;28;20446;-52
2023/02/14 15:56:19;;;;;;;5.95;4.03;;;;;;;;;;5085297;28;20031;-49
2023/02/14 15:58:45;;;;;;;6.65;4.53;;;;;;;;;;5085269;28;20020;-53
2023/02/14 16:01:11;;;;;;;6.47;4.35;;;;;;;;;;5085154;28;20077;-52
2023/02/14 16:03:42;;;;;;;6.85;4.93;;;;;;;;;;5085101;28;20039;-53
2023/02/14 16:06:14;;;;;;;8.18;4.43;;;;;;;;;;5085199;28;20407;-52
2023/02/14 16:08:40;;;;;;;7.00;4.47;;;;;;;;;;5084054;28;20032;-51
2023/02/14 16:11:12;;;;;;;7.15;4.18;;;;;;;;;;5085548;28;20555;-53
2023/02/14 16:13:40;;;;;;;6.47;4.18;;;;;;;;;;5073328;28;20043;-51
2023/02/14 16:16:08;;;;;;;7.60;4.32;;;;;;;;;;5069083;28;20029;-53
2023/02/14 16:18:34;;;;;;;6.60;4.22;;;;;;;;;;5069544;28;20511;-52
2023/02/14 16:21:33;;;;;;;4.90;3.67;;;;;;;;;;5069758;28;20036;-49
2023/02/14 16:24:14;;;;;;;7.47;4.70;;;;;;;;;;5035406;28;20032;-53
2023/02/14 16:26:41;;;;;;;6.65;4.50;;;;;;;;;;5068685;28;20037;-51
2023/02/14 16:29:11;;;;;;;7.05;4.75;;;;;;;;;;5068738;28;20032;-52
2023/02/14 16:31:53;;;;;;;7.97;5.30;;;;;;;;;;5068824;28;20017;-50
2023/02/14 16:34:19;;;;;;;9.82;6.57;;;;;;;;;;5068357;28;20025;-52
2023/02/14 16:36:45;;;;;;;12.38;7.13;;;;;;;;;;5068447;28;20033;-50
2023/02/14 16:39:19;;;;;;;12.82;7.18;;;;;;;;;;5068287;28;20038;-52
2023/02/14 16:41:46;;;;;;;11.00;6.82;;;;;;;;;;5068570;28;20407;-49
2023/02/14 16:44:16;;;;;;;12.55;7.07;;;;;;;;;;5068298;28;20052;-50
2023/02/14 16:46:44;;;;;;;10.43;6.18;;;;;;;;;;5068266;28;20452;-50
2023/02/14 16:49:11;;;;;;;9.93;5.72;;;;;;;;;;5068277;28;20054;-49
2023/02/14 16:51:37;;;;;;;13.02;6.65;;;;;;;;;;5068087;28;20070;-49
2023/02/14 16:54:04;;;;;;;10.65;6.38;;;;;;;;;;5068857;28;20024;-49
2023/02/14 16:56:45;;;;;;;10.88;6.70;;;;;;;;;;5068741;28;20195;-51
2023/02/14 16:59:12;;;;;;;12.57;7.15;;;;;;;;;;5068262;28;20107;-52
2023/02/14 17:01:40;;;;;;;11.75;6.63;;;;;;;;;;5068096;28;20082;-52
2023/02/14 17:04:07;;;;;;;9.63;5.90;;;;;;;;;;5067744;28;20541;-50
2023/02/14 17:06:33;;;;;;;9.32;5.82;;;;;;;;;;5068508;28;20399;-49
2023/02/14 17:09:04;;;;;;;8.25;5.45;;;;;;;;;;5068416;28;20036;-51
2023/02/14 17:11:31;;;;;;;9.57;5.30;;;;;;;;;;5069094;28;20404;-51
2023/02/14 17:13:57;;;;;;;8.43;4.90;;;;;;;;;;5067777;28;20021;-50
2023/02/14 17:16:23;;;;;;;8.45;5.32;;;;;;;;;;5067593;28;20025;-49
2023/02/14 17:18:51;;;;;;;8.20;5.15;;;;;;;;;;5068029;28;20032;-49
2023/02/14 17:21:20;;;;;;;10.93;5.63;;;;;;;;;;5067687;28;20028;-50
2023/02/14 17:23:46;;;;;;;9.45;5.13;;;;;;;;;;5067757;28;20025;-53
2023/02/14 17:26:13;;;;;;;7.97;5.10;;;;;;;;;;5067598;28;20388;-52
2023/02/14 17:28:39;;;;;;;9.63;5.35;;;;;;;;;;5067564;28;20357;-49
2023/02/14 17:31:05;;;;;;;9.07;5.18;;;;;;;;;;5067711;28;20043;-51
2023/02/14 17:33:32;;;;;;;7.65;4.68;;;;;;;;;;5067990;28;20495;-49
2023/02/14 17:36:05;;;;;;;8.32;4.93;;;;;;;;;;5067523;28;20498;-52
2023/02/14 17:38:33;;;;;;;9.15;5.40;;;;;;;;;;5067961;28;20472;-49
2023/02/14 17:41:09;;;;;;;9.15;5.07;;;;;;;;;;5067630;28;20299;-49
2023/02/14 17:43:35;;;;;;;10.57;5.90;;;;;;;;;;5067469;28;20107;-50
2023/02/14 17:46:04;;;;;;;8.20;4.95;;;;;;;;;;5068131;28;20116;-51
2023/02/14 17:48:30;;;;;;;8.45;4.80;;;;;;;;;;5067813;28;20016;-49
2023/02/14 17:50:56;;;;;;;8.05;4.82;;;;;;;;;;5067250;28;20112;-50
2023/02/14 17:53:22;;;;;;;8.15;4.40;;;;;;;;;;5066926;28;20024;-51
2023/02/14 17:55:48;;;;;;;6.95;4.50;;;;;;;;;;5067193;28;20279;-49
2023/02/14 17:58:14;;;;;;;6.97;4.00;;;;;;;;;;5067082;28;20108;-51
2023/02/14 18:00:42;;;;;;;6.78;4.07;;;;;;;;;;5067086;28;20471;-49
2023/02/14 18:03:08;;;;;;;6.85;4.25;;;;;;;;;;5066947;28;20025;-52
2023/02/14 18:05:35;;;;;;;5.25;3.70;;;;;;;;;;5073412;28;20043;-51
2023/02/14 18:08:01;;;;;;;5.15;3.25;;;;;;;;;;5087370;28;20102;-51
2023/02/14 18:10:27;;;;;;;5.20;3.47;;;;;;;;;;5080711;28;20012;-51
2023/02/14 18:12:53;;;;;;;5.28;3.22;;;;;;;;;;5066682;28;20024;-51
2023/02/14 18:15:19;;;;;;;7.03;3.70;;;;;;;;;;5066595;28;20040;-52
2023/02/14 18:17:49;;;;;;;5.10;3.13;;;;;;;;;;5067421;28;20529;-52
2023/02/14 18:20:15;;;;;;;5.47;3.33;;;;;;;;;;5067133;28;20025;-51
2023/02/14 18:22:41;;;;;;;5.22;2.97;;;;;;;;;;5066281;28;20040;-49
2023/02/14 18:25:07;;;;;;;5.60;3.42;;;;;;;;;;5074862;28;20562;-52
2023/02/14 18:27:33;;;;;;;4.85;3.00;;;;;;;;;;5085738;28;20035;-51
2023/02/14 18:29:59;;;;;;;4.97;2.90;;;;;;;;;;5085865;28;20040;-50
2023/02/14 18:32:25;;;;;;;5.63;3.15;;;;;;;;;;5085268;28;20020;-51
2023/02/14 18:34:51;;;;;;;5.35;3.45;;;;;;;;;;5086521;28;20032;-52
2023/02/14 18:37:18;;;;;;;5.13;3.13;;;;;;;;;;5086497;28;20031;-49
2023/02/14 18:39:44;;;;;;;5.65;3.40;;;;;;;;;;5086088;28;20070;-52
2023/02/14 18:42:10;;;;;;;5.30;3.70;;;;;;;;;;5085549;28;20087;-52
2023/02/14 18:44:36;;;;;;;7.13;4.13;;;;;;;;;;5086405;28;20680;-52
2023/02/14 18:47:02;;;;;;;5.97;3.53;;;;;;;;;;5086008;28;20047;-50
2023/02/14 18:49:29;;;;;;;8.82;4.53;;;;;;;;;;5084724;28;20115;-53
2023/02/14 18:51:56;;;;;;;7.43;3.90;;;;;;;;;;5084025;28;20028;-52
2023/02/14 18:54:22;;;;;;;6.47;3.67;;;;;;;;;;5083434;28;20515;-51
2023/02/14 18:56:49;;;;;;;5.88;3.15;;;;;;;;;;5081739;28;20039;-51
2023/02/14 18:59:16;;;;;;;4.55;2.78;;;;;;;;;;5083075;28;20031;-52
2023/02/14 19:01:43;;;;;;;3.75;2.20;;;;;;;;;;5085149;28;20511;-48
2023/02/14 19:04:11;;;;;;;3.60;2.35;;;;;;;;;;5081780;28;20094;-51
2023/02/14 19:06:37;;;;;;;4.97;2.50;;;;;;;;;;5080049;28;20667;-52
2023/02/14 19:09:07;;;;;;;4.90;2.55;;;;;;;;;;5079769;28;20152;-50
2023/02/14 19:11:33;;;;;;;5.35;2.85;;;;;;;;;;5082574;28;20047;-51
2023/02/14 19:14:00;;;;;;;6.10;2.70;;;;;;;;;;5078083;28;20116;-51
2023/02/14 19:16:31;;;;;;;4.85;2.95;;;;;;;;;;5082999;28;20012;-52
2023/02/14 19:18:58;;;;;;;4.60;2.88;;;;;;;;;;5082582;28;20035;-51
2023/02/14 19:21:26;;;;;;;6.32;3.40;;;;;;;;;;5083961;28;20065;-52
2023/02/14 19:23:57;;;;;;;5.85;3.30;;;;;;;;;;5065443;28;20032;-48
2023/02/14 19:26:24;;;;;;;5.45;3.00;;;;;;;;;;5083521;28;20028;-51
2023/02/14 19:29:02;;;;;;;6.18;3.88;;;;;;;;;;5094342;28;20036;-52
2023/02/14 19:31:28;;;;;;;8.07;4.38;;;;;;;;;;5064950;28;20059;-50
2023/02/14 19:33:54;;;;;;;5.82;4.03;;;;;;;;;;5095871;28;20086;-51
2023/02/14 19:36:21;;;;;;;6.88;4.20;;;;;;;;;;5084268;28;20027;-52
2023/02/14 19:38:48;;;;;;;6.85;3.75;;;;;;;;;;5086434;28;20517;-52
2023/02/14 19:41:15;;;;;;;7.05;3.90;;;;;;;;;;5085429;28;20103;-51
2023/02/14 19:43:42;;;;;;;5.97;3.30;;;;;;;;;;5084912;28;20043;-51
2023/02/14 19:46:09;;;;;;;4.97;3.10;;;;;;;;;;5085457;28;20055;-52
2023/02/14 19:48:35;;;;;;;6.18;3.47;;;;;;;;;;5067053;28;20040;-51
2023/02/14 19:51:01;;;;;;;5.95;2.97;;;;;;;;;;5085195;28;20483;-51
2023/02/14 19:53:27;;;;;;;5.05;3.40;;;;;;;;;;5084927;28;20095;-53
2023/02/14 19:55:53;;;;;;;5.38;3.35;;;;;;;;;;5085145;28;20036;-53
2023/02/14 19:58:19;;;;;;;5.72;3.35;;;;;;;;;;5084734;28;20169;-52
2023/02/14 20:00:45;;;;;;;4.78;3.30;;;;;;;;;;5085754;28;20028;-52
2023/02/14 20:03:11;;;;;;;5.97;3.53;;;;;;;;;;5083717;28;20502;-50
2023/02/14 20:05:38;;;;;;;4.75;3.00;;;;;;;;;;5085518;28;20028;-53